sensor_id;sensor_type;location;lat;lon;timestamp;temperature;humidity
7700;DHT22;3892;47.794;19.126;2022-11-20T00:00:49;10.70;37.20
7700;DHT22;3892;47.794;19.126;2022-11-20T00:03:16;10.60;37.20
7700;DHT22;3892;47.794;19.126;2022-11-20T00:05:44;10.60;37.40
7700;DHT22;3892;47.794;19.126;2022-11-20T00:08:11;10.50;37.50
7700;DHT22;3892;47.794;19.126;2022-11-20T00:10:38;10.60;37.70
7700;DHT22;3892;47.794;19.126;2022-11-20T00:13:06;10.60;37.60
7700;DHT22;3892;47.794;19.126;2022-11-20T00:15:34;10.60;37.60
7700;DHT22;3892;47.794;19.126;2022-11-20T00:18:01;10.60;37.30
7700;DHT22;3892;47.794;19.126;2022-11-20T00:20:28;10.70;37.20
7700;DHT22;3892;47.794;19.126;2022-11-20T00:22:55;10.60;36.90
7700;DHT22;3892;47.794;19.126;2022-11-20T00:25:22;10.60;36.80
7700;DHT22;3892;47.794;19.126;2022-11-20T00:27:50;10.60;36.80
7700;DHT22;3892;47.794;19.126;2022-11-20T00:30:17;10.60;36.80
7700;DHT22;3892;47.794;19.126;2022-11-20T00:32:46;10.60;37.10
7700;DHT22;3892;47.794;19.126;2022-11-20T00:35:13;10.50;37.00
7700;DHT22;3892;47.794;19.126;2022-11-20T00:37:40;10.50;37.10
7700;DHT22;3892;47.794;19.126;2022-11-20T00:40:08;10.50;37.20
7700;DHT22;3892;47.794;19.126;2022-11-20T00:42:35;10.50;37.20
7700;DHT22;3892;47.794;19.126;2022-11-20T00:45:02;10.40;37.20
7700;DHT22;3892;47.794;19.126;2022-11-20T00:47:29;10.40;37.50
7700;DHT22;3892;47.794;19.126;2022-11-20T00:49:57;10.30;37.50
7700;DHT22;3892;47.794;19.126;2022-11-20T00:52:24;10.40;37.90
7700;DHT22;3892;47.794;19.126;2022-11-20T00:54:51;10.30;37.80
7700;DHT22;3892;47.794;19.126;2022-11-20T00:57:18;10.40;38.00
7700;DHT22;3892;47.794;19.126;2022-11-20T00:59:45;10.40;38.10
7700;DHT22;3892;47.794;19.126;2022-11-20T01:02:12;10.40;38.00
7700;DHT22;3892;47.794;19.126;2022-11-20T01:04:41;10.40;37.90
7700;DHT22;3892;47.794;19.126;2022-11-20T01:07:09;10.40;37.80
7700;DHT22;3892;47.794;19.126;2022-11-20T01:09:36;10.40;37.90
7700;DHT22;3892;47.794;19.126;2022-11-20T01:12:03;10.40;37.90
7700;DHT22;3892;47.794;19.126;2022-11-20T01:14:30;10.40;38.00
7700;DHT22;3892;47.794;19.126;2022-11-20T01:16:57;10.40;38.60
7700;DHT22;3892;47.794;19.126;2022-11-20T01:19:24;10.40;37.90
7700;DHT22;3892;47.794;19.126;2022-11-20T01:21:54;10.40;37.80
7700;DHT22;3892;47.794;19.126;2022-11-20T01:24:22;10.40;37.80
7700;DHT22;3892;47.794;19.126;2022-11-20T01:26:50;10.40;37.80
7700;DHT22;3892;47.794;19.126;2022-11-20T01:29:19;10.40;37.90
7700;DHT22;3892;47.794;19.126;2022-11-20T01:31:46;10.40;37.80
7700;DHT22;3892;47.794;19.126;2022-11-20T01:34:15;10.30;37.70
7700;DHT22;3892;47.794;19.126;2022-11-20T01:36:43;10.30;37.70
7700;DHT22;3892;47.794;19.126;2022-11-20T01:39:12;10.30;37.70
7700;DHT22;3892;47.794;19.126;2022-11-20T01:41:41;10.30;37.70
7700;DHT22;3892;47.794;19.126;2022-11-20T01:44:46;10.30;37.70
7700;DHT22;3892;47.794;19.126;2022-11-20T01:47:16;10.20;37.70
7700;DHT22;3892;47.794;19.126;2022-11-20T01:49:46;10.20;37.80
7700;DHT22;3892;47.794;19.126;2022-11-20T01:52:16;10.20;37.90
7700;DHT22;3892;47.794;19.126;2022-11-20T01:54:49;10.20;38.00
7700;DHT22;3892;47.794;19.126;2022-11-20T01:57:20;10.20;37.90
7700;DHT22;3892;47.794;19.126;2022-11-20T01:59:51;10.20;38.00
7700;DHT22;3892;47.794;19.126;2022-11-20T02:02:21;10.20;37.90
7700;DHT22;3892;47.794;19.126;2022-11-20T02:04:49;10.10;37.90
7700;DHT22;3892;47.794;19.126;2022-11-20T02:07:19;10.10;38.00
7700;DHT22;3892;47.794;19.126;2022-11-20T02:09:47;10.20;38.00
7700;DHT22;3892;47.794;19.126;2022-11-20T02:12:14;10.10;37.80
7700;DHT22;3892;47.794;19.126;2022-11-20T02:14:56;10.00;37.90
7700;DHT22;3892;47.794;19.126;2022-11-20T02:17:24;10.00;37.90
7700;DHT22;3892;47.794;19.126;2022-11-20T02:19:51;9.90;38.60
7700;DHT22;3892;47.794;19.126;2022-11-20T02:22:22;9.90;38.80
7700;DHT22;3892;47.794;19.126;2022-11-20T02:24:56;9.90;38.90
7700;DHT22;3892;47.794;19.126;2022-11-20T02:27:23;9.90;38.90
7700;DHT22;3892;47.794;19.126;2022-11-20T02:29:52;9.90;39.10
7700;DHT22;3892;47.794;19.126;2022-11-20T02:32:21;9.90;39.20
7700;DHT22;3892;47.794;19.126;2022-11-20T02:34:49;9.90;39.20
7700;DHT22;3892;47.794;19.126;2022-11-20T02:37:17;9.90;39.40
7700;DHT22;3892;47.794;19.126;2022-11-20T02:39:45;9.90;39.40
7700;DHT22;3892;47.794;19.126;2022-11-20T02:42:14;9.90;39.50
7700;DHT22;3892;47.794;19.126;2022-11-20T02:44:41;9.90;39.50
7700;DHT22;3892;47.794;19.126;2022-11-20T02:47:08;9.90;39.70
7700;DHT22;3892;47.794;19.126;2022-11-20T02:49:35;9.90;39.80
7700;DHT22;3892;47.794;19.126;2022-11-20T02:52:02;9.80;39.50
7700;DHT22;3892;47.794;19.126;2022-11-20T02:54:29;9.70;39.50
7700;DHT22;3892;47.794;19.126;2022-11-20T02:56:56;9.60;39.60
7700;DHT22;3892;47.794;19.126;2022-11-20T02:59:24;9.60;39.90
7700;DHT22;3892;47.794;19.126;2022-11-20T03:01:51;9.70;40.00
7700;DHT22;3892;47.794;19.126;2022-11-20T03:04:18;9.70;40.00
7700;DHT22;3892;47.794;19.126;2022-11-20T03:06:45;9.60;40.00
7700;DHT22;3892;47.794;19.126;2022-11-20T03:09:12;9.70;40.10
7700;DHT22;3892;47.794;19.126;2022-11-20T03:11:39;9.70;40.00
7700;DHT22;3892;47.794;19.126;2022-11-20T03:14:07;9.80;39.90
7700;DHT22;3892;47.794;19.126;2022-11-20T03:16:35;9.70;39.60
7700;DHT22;3892;47.794;19.126;2022-11-20T03:19:02;9.80;39.70
7700;DHT22;3892;47.794;19.126;2022-11-20T03:21:29;9.80;39.50
7700;DHT22;3892;47.794;19.126;2022-11-20T03:23:56;9.90;39.60
7700;DHT22;3892;47.794;19.126;2022-11-20T03:26:25;9.90;39.50
7700;DHT22;3892;47.794;19.126;2022-11-20T03:28:53;9.90;39.40
7700;DHT22;3892;47.794;19.126;2022-11-20T03:31:22;10.00;38.50
7700;DHT22;3892;47.794;19.126;2022-11-20T03:33:51;10.00;38.50
7700;DHT22;3892;47.794;19.126;2022-11-20T03:36:20;10.00;38.40
7700;DHT22;3892;47.794;19.126;2022-11-20T03:38:47;10.10;38.50
7700;DHT22;3892;47.794;19.126;2022-11-20T03:41:17;10.10;38.70
7700;DHT22;3892;47.794;19.126;2022-11-20T03:43:47;10.00;38.50
7700;DHT22;3892;47.794;19.126;2022-11-20T03:46:14;9.90;39.50
7700;DHT22;3892;47.794;19.126;2022-11-20T03:48:42;10.00;38.50
7700;DHT22;3892;47.794;19.126;2022-11-20T03:51:12;10.00;38.40
7700;DHT22;3892;47.794;19.126;2022-11-20T03:53:40;10.10;38.40
7700;DHT22;3892;47.794;19.126;2022-11-20T03:56:08;10.10;38.40
7700;DHT22;3892;47.794;19.126;2022-11-20T03:58:36;10.10;38.40
7700;DHT22;3892;47.794;19.126;2022-11-20T04:01:06;10.10;38.30
7700;DHT22;3892;47.794;19.126;2022-11-20T04:03:34;10.20;38.30
7700;DHT22;3892;47.794;19.126;2022-11-20T04:06:05;10.20;38.10
7700;DHT22;3892;47.794;19.126;2022-11-20T04:08:33;10.20;38.10
7700;DHT22;3892;47.794;19.126;2022-11-20T04:11:11;10.20;38.40
7700;DHT22;3892;47.794;19.126;2022-11-20T04:13:39;10.30;38.90
7700;DHT22;3892;47.794;19.126;2022-11-20T04:16:07;10.30;38.50
7700;DHT22;3892;47.794;19.126;2022-11-20T04:18:34;10.30;39.10
7700;DHT22;3892;47.794;19.126;2022-11-20T04:21:02;10.30;38.30
7700;DHT22;3892;47.794;19.126;2022-11-20T04:23:29;10.30;38.50
7700;DHT22;3892;47.794;19.126;2022-11-20T04:26:02;10.30;38.60
7700;DHT22;3892;47.794;19.126;2022-11-20T04:28:29;10.30;38.70
7700;DHT22;3892;47.794;19.126;2022-11-20T04:31:02;10.30;38.70
7700;DHT22;3892;47.794;19.126;2022-11-20T04:33:30;10.30;38.80
7700;DHT22;3892;47.794;19.126;2022-11-20T04:36:03;10.30;38.60
7700;DHT22;3892;47.794;19.126;2022-11-20T04:38:30;10.40;38.70
7700;DHT22;3892;47.794;19.126;2022-11-20T04:40:58;10.40;38.60
7700;DHT22;3892;47.794;19.126;2022-11-20T04:43:27;10.40;38.50
7700;DHT22;3892;47.794;19.126;2022-11-20T04:45:55;10.30;38.30
7700;DHT22;3892;47.794;19.126;2022-11-20T04:48:24;10.40;38.50
7700;DHT22;3892;47.794;19.126;2022-11-20T04:50:51;10.30;38.50
7700;DHT22;3892;47.794;19.126;2022-11-20T04:53:19;10.30;38.50
7700;DHT22;3892;47.794;19.126;2022-11-20T04:55:46;10.30;38.50
7700;DHT22;3892;47.794;19.126;2022-11-20T04:58:14;10.40;38.60
7700;DHT22;3892;47.794;19.126;2022-11-20T05:00:42;10.40;38.60
7700;DHT22;3892;47.794;19.126;2022-11-20T05:03:09;10.30;38.30
7700;DHT22;3892;47.794;19.126;2022-11-20T05:05:36;10.30;38.20
7700;DHT22;3892;47.794;19.126;2022-11-20T05:08:04;10.20;38.00
7700;DHT22;3892;47.794;19.126;2022-11-20T05:10:31;10.20;38.30
7700;DHT22;3892;47.794;19.126;2022-11-20T05:12:57;10.20;38.30
7700;DHT22;3892;47.794;19.126;2022-11-20T05:15:24;10.20;38.40
7700;DHT22;3892;47.794;19.126;2022-11-20T05:17:53;10.20;38.30
7700;DHT22;3892;47.794;19.126;2022-11-20T05:20:20;10.10;38.30
7700;DHT22;3892;47.794;19.126;2022-11-20T05:22:47;10.20;38.20
7700;DHT22;3892;47.794;19.126;2022-11-20T05:25:14;10.20;38.10
7700;DHT22;3892;47.794;19.126;2022-11-20T05:27:41;10.20;38.30
7700;DHT22;3892;47.794;19.126;2022-11-20T05:30:09;10.20;38.00
7700;DHT22;3892;47.794;19.126;2022-11-20T05:32:37;10.10;37.90
7700;DHT22;3892;47.794;19.126;2022-11-20T05:35:06;10.10;37.90
7700;DHT22;3892;47.794;19.126;2022-11-20T05:37:33;10.10;37.60
7700;DHT22;3892;47.794;19.126;2022-11-20T05:40:00;10.10;37.50
7700;DHT22;3892;47.794;19.126;2022-11-20T05:42:30;10.10;37.30
7700;DHT22;3892;47.794;19.126;2022-11-20T05:44:57;10.10;37.00
7700;DHT22;3892;47.794;19.126;2022-11-20T05:47:24;10.00;36.80
7700;DHT22;3892;47.794;19.126;2022-11-20T05:49:51;10.00;36.80
7700;DHT22;3892;47.794;19.126;2022-11-20T05:52:20;10.00;36.90
7700;DHT22;3892;47.794;19.126;2022-11-20T05:54:47;10.00;36.90
7700;DHT22;3892;47.794;19.126;2022-11-20T05:57:14;9.90;37.70
7700;DHT22;3892;47.794;19.126;2022-11-20T05:59:41;9.90;37.60
7700;DHT22;3892;47.794;19.126;2022-11-20T06:02:08;9.90;37.70
7700;DHT22;3892;47.794;19.126;2022-11-20T06:04:35;9.90;37.70
7700;DHT22;3892;47.794;19.126;2022-11-20T06:07:02;9.90;37.80
7700;DHT22;3892;47.794;19.126;2022-11-20T06:09:32;9.90;37.80
7700;DHT22;3892;47.794;19.126;2022-11-20T06:11:59;9.80;38.20
7700;DHT22;3892;47.794;19.126;2022-11-20T06:14:26;9.80;37.70
7700;DHT22;3892;47.794;19.126;2022-11-20T06:16:53;9.80;37.70
7700;DHT22;3892;47.794;19.126;2022-11-20T06:19:20;9.70;37.50
7700;DHT22;3892;47.794;19.126;2022-11-20T06:21:47;9.70;37.50
7700;DHT22;3892;47.794;19.126;2022-11-20T06:24:15;9.70;37.50
7700;DHT22;3892;47.794;19.126;2022-11-20T06:26:44;9.70;37.50
7700;DHT22;3892;47.794;19.126;2022-11-20T06:29:11;9.70;37.60
7700;DHT22;3892;47.794;19.126;2022-11-20T06:31:38;9.80;37.70
7700;DHT22;3892;47.794;19.126;2022-11-20T06:34:08;9.80;37.60
7700;DHT22;3892;47.794;19.126;2022-11-20T06:36:35;9.80;37.70
7700;DHT22;3892;47.794;19.126;2022-11-20T06:39:03;9.80;37.70
7700;DHT22;3892;47.794;19.126;2022-11-20T06:41:30;9.90;37.70
7700;DHT22;3892;47.794;19.126;2022-11-20T06:43:58;9.90;37.80
7700;DHT22;3892;47.794;19.126;2022-11-20T06:46:25;10.00;37.10
7700;DHT22;3892;47.794;19.126;2022-11-20T06:48:52;10.00;37.20
7700;DHT22;3892;47.794;19.126;2022-11-20T06:51:20;10.00;37.00
7700;DHT22;3892;47.794;19.126;2022-11-20T06:53:48;10.00;37.00
7700;DHT22;3892;47.794;19.126;2022-11-20T06:56:15;10.10;36.80
7700;DHT22;3892;47.794;19.126;2022-11-20T06:58:42;10.10;36.80
7700;DHT22;3892;47.794;19.126;2022-11-20T07:01:12;10.10;36.70
7700;DHT22;3892;47.794;19.126;2022-11-20T07:03:40;10.10;37.00
7700;DHT22;3892;47.794;19.126;2022-11-20T07:06:08;10.10;37.00
7700;DHT22;3892;47.794;19.126;2022-11-20T07:08:35;10.20;37.20
7700;DHT22;3892;47.794;19.126;2022-11-20T07:11:05;10.20;37.10
7700;DHT22;3892;47.794;19.126;2022-11-20T07:13:32;10.20;37.20
7700;DHT22;3892;47.794;19.126;2022-11-20T07:16:00;10.20;37.30
7700;DHT22;3892;47.794;19.126;2022-11-20T07:18:29;10.20;37.30
7700;DHT22;3892;47.794;19.126;2022-11-20T07:20:56;10.30;37.30
7700;DHT22;3892;47.794;19.126;2022-11-20T07:23:26;10.30;37.20
7700;DHT22;3892;47.794;19.126;2022-11-20T07:25:53;10.30;37.40
7700;DHT22;3892;47.794;19.126;2022-11-20T07:28:20;10.20;37.40
7700;DHT22;3892;47.794;19.126;2022-11-20T07:30:50;10.20;37.30
7700;DHT22;3892;47.794;19.126;2022-11-20T07:33:17;10.20;37.40
7700;DHT22;3892;47.794;19.126;2022-11-20T07:35:45;10.30;37.30
7700;DHT22;3892;47.794;19.126;2022-11-20T07:38:12;10.30;37.30
7700;DHT22;3892;47.794;19.126;2022-11-20T07:40:40;10.30;37.40
7700;DHT22;3892;47.794;19.126;2022-11-20T07:43:07;10.40;37.50
7700;DHT22;3892;47.794;19.126;2022-11-20T07:45:34;10.40;37.50
7700;DHT22;3892;47.794;19.126;2022-11-20T07:48:01;10.50;37.60
7700;DHT22;3892;47.794;19.126;2022-11-20T07:50:28;10.40;37.20
7700;DHT22;3892;47.794;19.126;2022-11-20T07:53:03;10.30;36.80
7700;DHT22;3892;47.794;19.126;2022-11-20T07:55:30;10.30;37.10
7700;DHT22;3892;47.794;19.126;2022-11-20T07:57:58;10.20;36.90
7700;DHT22;3892;47.794;19.126;2022-11-20T08:00:26;10.20;37.30
7700;DHT22;3892;47.794;19.126;2022-11-20T08:02:53;10.20;37.30
7700;DHT22;3892;47.794;19.126;2022-11-20T08:05:20;10.30;37.30
7700;DHT22;3892;47.794;19.126;2022-11-20T08:07:48;10.30;37.30
7700;DHT22;3892;47.794;19.126;2022-11-20T08:10:17;10.40;37.40
7700;DHT22;3892;47.794;19.126;2022-11-20T08:12:44;10.40;37.30
7700;DHT22;3892;47.794;19.126;2022-11-20T08:15:29;10.40;37.30
7700;DHT22;3892;47.794;19.126;2022-11-20T08:18:01;10.50;37.30
7700;DHT22;3892;47.794;19.126;2022-11-20T08:20:28;10.50;37.10
7700;DHT22;3892;47.794;19.126;2022-11-20T08:22:58;10.50;37.10
7700;DHT22;3892;47.794;19.126;2022-11-20T08:25:27;10.60;37.20
7700;DHT22;3892;47.794;19.126;2022-11-20T08:27:57;10.60;37.20
7700;DHT22;3892;47.794;19.126;2022-11-20T08:30:24;10.60;37.40
7700;DHT22;3892;47.794;19.126;2022-11-20T08:32:51;10.60;37.60
7700;DHT22;3892;47.794;19.126;2022-11-20T08:35:19;10.70;37.80
7700;DHT22;3892;47.794;19.126;2022-11-20T08:37:46;10.70;37.70
7700;DHT22;3892;47.794;19.126;2022-11-20T08:40:13;10.70;37.60
7700;DHT22;3892;47.794;19.126;2022-11-20T08:42:47;10.80;37.40
7700;DHT22;3892;47.794;19.126;2022-11-20T08:45:15;10.80;37.20
7700;DHT22;3892;47.794;19.126;2022-11-20T08:47:43;10.80;37.10
7700;DHT22;3892;47.794;19.126;2022-11-20T08:50:11;10.90;37.20
7700;DHT22;3892;47.794;19.126;2022-11-20T08:52:38;10.90;37.20
7700;DHT22;3892;47.794;19.126;2022-11-20T08:55:07;10.90;37.10
7700;DHT22;3892;47.794;19.126;2022-11-20T08:57:35;10.90;37.00
7700;DHT22;3892;47.794;19.126;2022-11-20T09:00:06;10.90;36.80
7700;DHT22;3892;47.794;19.126;2022-11-20T09:02:33;11.00;36.80
7700;DHT22;3892;47.794;19.126;2022-11-20T09:05:00;11.00;36.60
7700;DHT22;3892;47.794;19.126;2022-11-20T09:07:28;11.00;36.60
7700;DHT22;3892;47.794;19.126;2022-11-20T09:09:55;11.00;36.80
7700;DHT22;3892;47.794;19.126;2022-11-20T09:12:23;11.00;37.00
7700;DHT22;3892;47.794;19.126;2022-11-20T09:14:50;11.00;36.80
7700;DHT22;3892;47.794;19.126;2022-11-20T09:17:18;11.10;36.80
7700;DHT22;3892;47.794;19.126;2022-11-20T09:19:46;11.10;36.60
7700;DHT22;3892;47.794;19.126;2022-11-20T09:22:13;11.10;36.40
7700;DHT22;3892;47.794;19.126;2022-11-20T09:24:40;11.10;36.30
7700;DHT22;3892;47.794;19.126;2022-11-20T09:27:08;11.10;36.20
7700;DHT22;3892;47.794;19.126;2022-11-20T09:29:35;11.10;36.10
7700;DHT22;3892;47.794;19.126;2022-11-20T09:32:02;11.10;36.30
7700;DHT22;3892;47.794;19.126;2022-11-20T09:34:31;11.00;36.10
7700;DHT22;3892;47.794;19.126;2022-11-20T09:36:58;11.10;36.50
7700;DHT22;3892;47.794;19.126;2022-11-20T09:39:25;11.10;36.50
7700;DHT22;3892;47.794;19.126;2022-11-20T09:42:16;11.10;36.50
7700;DHT22;3892;47.794;19.126;2022-11-20T09:44:52;11.20;36.50
7700;DHT22;3892;47.794;19.126;2022-11-20T09:47:27;11.30;36.60
7700;DHT22;3892;47.794;19.126;2022-11-20T09:50:07;11.30;36.60
7700;DHT22;3892;47.794;19.126;2022-11-20T09:52:47;11.30;36.70
7700;DHT22;3892;47.794;19.126;2022-11-20T09:55:17;11.30;36.60
7700;DHT22;3892;47.794;19.126;2022-11-20T09:57:46;11.30;36.80
7700;DHT22;3892;47.794;19.126;2022-11-20T10:00:15;11.30;37.00
7700;DHT22;3892;47.794;19.126;2022-11-20T10:02:46;11.20;36.90
7700;DHT22;3892;47.794;19.126;2022-11-20T10:05:18;11.30;37.00
7700;DHT22;3892;47.794;19.126;2022-11-20T10:07:51;11.30;36.80
7700;DHT22;3892;47.794;19.126;2022-11-20T10:10:29;11.30;36.80
7700;DHT22;3892;47.794;19.126;2022-11-20T10:13:10;11.30;36.80
7700;DHT22;3892;47.794;19.126;2022-11-20T10:15:46;11.30;36.40
7700;DHT22;3892;47.794;19.126;2022-11-20T10:18:27;11.70;36.70
7700;DHT22;3892;47.794;19.126;2022-11-20T10:21:03;12.10;36.30
7700;DHT22;3892;47.794;19.126;2022-11-20T10:23:53;12.60;35.70
7700;DHT22;3892;47.794;19.126;2022-11-20T10:26:31;13.20;35.40
7700;DHT22;3892;47.794;19.126;2022-11-20T10:29:07;13.40;34.90
7700;DHT22;3892;47.794;19.126;2022-11-20T10:31:38;13.40;34.80
7700;DHT22;3892;47.794;19.126;2022-11-20T10:34:15;13.50;34.50
7700;DHT22;3892;47.794;19.126;2022-11-20T10:36:49;13.50;34.60
7700;DHT22;3892;47.794;19.126;2022-11-20T10:39:22;13.60;34.80
7700;DHT22;3892;47.794;19.126;2022-11-20T10:41:52;13.80;34.70
7700;DHT22;3892;47.794;19.126;2022-11-20T10:44:22;14.10;34.70
7700;DHT22;3892;47.794;19.126;2022-11-20T10:47:14;14.50;34.40
7700;DHT22;3892;47.794;19.126;2022-11-20T10:49:41;15.00;34.60
7700;DHT22;3892;47.794;19.126;2022-11-20T10:52:16;15.60;34.20
7700;DHT22;3892;47.794;19.126;2022-11-20T10:54:53;16.30;33.20
7700;DHT22;3892;47.794;19.126;2022-11-20T10:57:31;16.90;32.50
7700;DHT22;3892;47.794;19.126;2022-11-20T11:00:06;17.60;32.40
7700;DHT22;3892;47.794;19.126;2022-11-20T11:02:38;18.20;32.00
7700;DHT22;3892;47.794;19.126;2022-11-20T11:05:13;18.90;31.40
7700;DHT22;3892;47.794;19.126;2022-11-20T11:07:45;19.40;30.80
7700;DHT22;3892;47.794;19.126;2022-11-20T11:10:16;20.00;30.00
7700;DHT22;3892;47.794;19.126;2022-11-20T11:12:46;19.90;29.40
7700;DHT22;3892;47.794;19.126;2022-11-20T11:15:24;20.20;29.50
7700;DHT22;3892;47.794;19.126;2022-11-20T11:17:52;20.50;29.40
7700;DHT22;3892;47.794;19.126;2022-11-20T11:20:20;20.60;29.20
7700;DHT22;3892;47.794;19.126;2022-11-20T11:22:50;20.40;28.80
7700;DHT22;3892;47.794;19.126;2022-11-20T11:25:27;20.40;28.80
7700;DHT22;3892;47.794;19.126;2022-11-20T11:27:56;20.40;29.20
7700;DHT22;3892;47.794;19.126;2022-11-20T11:30:25;20.10;28.80
7700;DHT22;3892;47.794;19.126;2022-11-20T11:33:02;19.60;29.00
7700;DHT22;3892;47.794;19.126;2022-11-20T11:35:30;19.00;29.20
7700;DHT22;3892;47.794;19.126;2022-11-20T11:38:04;18.50;29.60
7700;DHT22;3892;47.794;19.126;2022-11-20T11:40:34;17.80;30.00
7700;DHT22;3892;47.794;19.126;2022-11-20T11:43:05;17.40;30.70
7700;DHT22;3892;47.794;19.126;2022-11-20T11:45:54;17.00;30.90
7700;DHT22;3892;47.794;19.126;2022-11-20T11:48:21;16.60;31.60
7700;DHT22;3892;47.794;19.126;2022-11-20T11:50:49;16.30;31.80
7700;DHT22;3892;47.794;19.126;2022-11-20T11:53:20;16.00;31.90
7700;DHT22;3892;47.794;19.126;2022-11-20T11:55:54;15.70;32.20
7700;DHT22;3892;47.794;19.126;2022-11-20T11:58:34;15.50;32.40
7700;DHT22;3892;47.794;19.126;2022-11-20T12:01:17;15.30;32.80
7700;DHT22;3892;47.794;19.126;2022-11-20T12:03:54;15.20;33.10
7700;DHT22;3892;47.794;19.126;2022-11-20T12:06:23;15.10;33.40
7700;DHT22;3892;47.794;19.126;2022-11-20T12:08:55;15.30;33.80
7700;DHT22;3892;47.794;19.126;2022-11-20T12:11:30;15.30;33.60
7700;DHT22;3892;47.794;19.126;2022-11-20T12:14:02;15.40;33.40
7700;DHT22;3892;47.794;19.126;2022-11-20T12:16:35;15.50;33.50
7700;DHT22;3892;47.794;19.126;2022-11-20T12:19:08;15.40;33.40
7700;DHT22;3892;47.794;19.126;2022-11-20T12:21:44;15.40;33.70
7700;DHT22;3892;47.794;19.126;2022-11-20T12:24:28;15.40;33.70
7700;DHT22;3892;47.794;19.126;2022-11-20T12:27:05;15.40;33.70
7700;DHT22;3892;47.794;19.126;2022-11-20T12:29:45;15.50;34.10
7700;DHT22;3892;47.794;19.126;2022-11-20T12:35:36;15.60;34.00
7700;DHT22;3892;47.794;19.126;2022-11-20T12:38:29;15.50;33.90
7700;DHT22;3892;47.794;19.126;2022-11-20T12:41:08;15.40;34.10
7700;DHT22;3892;47.794;19.126;2022-11-20T12:43:42;15.30;34.30
7700;DHT22;3892;47.794;19.126;2022-11-20T12:46:36;15.10;34.60
7700;DHT22;3892;47.794;19.126;2022-11-20T12:49:22;15.00;34.90
7700;DHT22;3892;47.794;19.126;2022-11-20T12:52:02;15.00;35.10
7700;DHT22;3892;47.794;19.126;2022-11-20T12:57:40;14.90;35.20
7700;DHT22;3892;47.794;19.126;2022-11-20T13:00:14;14.90;35.50
7700;DHT22;3892;47.794;19.126;2022-11-20T13:02:58;14.80;35.20
7700;DHT22;3892;47.794;19.126;2022-11-20T13:05:34;14.80;35.50
7700;DHT22;3892;47.794;19.126;2022-11-20T13:08:03;14.70;35.70
7700;DHT22;3892;47.794;19.126;2022-11-20T13:10:39;14.60;35.60
7700;DHT22;3892;47.794;19.126;2022-11-20T13:13:16;14.50;35.30
7700;DHT22;3892;47.794;19.126;2022-11-20T13:15:50;14.20;35.20
7700;DHT22;3892;47.794;19.126;2022-11-20T13:18:21;14.10;35.70
7700;DHT22;3892;47.794;19.126;2022-11-20T13:20:48;14.00;35.70
7700;DHT22;3892;47.794;19.126;2022-11-20T13:23:25;13.90;35.80
7700;DHT22;3892;47.794;19.126;2022-11-20T13:26:04;13.90;36.10
7700;DHT22;3892;47.794;19.126;2022-11-20T13:28:33;13.90;36.20
7700;DHT22;3892;47.794;19.126;2022-11-20T13:31:01;14.00;36.10
7700;DHT22;3892;47.794;19.126;2022-11-20T13:33:30;13.90;35.90
7700;DHT22;3892;47.794;19.126;2022-11-20T13:36:00;13.90;35.90
7700;DHT22;3892;47.794;19.126;2022-11-20T13:38:28;13.80;36.30
7700;DHT22;3892;47.794;19.126;2022-11-20T13:40:57;13.80;36.40
7700;DHT22;3892;47.794;19.126;2022-11-20T13:43:33;13.80;36.40
7700;DHT22;3892;47.794;19.126;2022-11-20T13:46:03;13.90;36.50
7700;DHT22;3892;47.794;19.126;2022-11-20T13:48:33;13.70;36.10
7700;DHT22;3892;47.794;19.126;2022-11-20T13:51:09;13.80;36.70
7700;DHT22;3892;47.794;19.126;2022-11-20T13:56:51;13.80;36.60
7700;DHT22;3892;47.794;19.126;2022-11-20T13:59:36;13.90;37.40
7700;DHT22;3892;47.794;19.126;2022-11-20T14:02:19;13.90;36.90
7700;DHT22;3892;47.794;19.126;2022-11-20T14:04:49;14.00;37.00
7700;DHT22;3892;47.794;19.126;2022-11-20T14:07:18;14.10;36.90
7700;DHT22;3892;47.794;19.126;2022-11-20T14:09:52;14.20;36.70
7700;DHT22;3892;47.794;19.126;2022-11-20T14:12:20;14.20;36.40
7700;DHT22;3892;47.794;19.126;2022-11-20T14:14:50;14.20;36.30
7700;DHT22;3892;47.794;19.126;2022-11-20T14:17:21;14.30;36.40
7700;DHT22;3892;47.794;19.126;2022-11-20T14:19:50;14.30;36.40
7700;DHT22;3892;47.794;19.126;2022-11-20T14:22:20;14.20;36.00
7700;DHT22;3892;47.794;19.126;2022-11-20T14:24:47;14.20;36.10
7700;DHT22;3892;47.794;19.126;2022-11-20T14:27:16;14.10;36.00
7700;DHT22;3892;47.794;19.126;2022-11-20T14:29:46;14.10;36.30
7700;DHT22;3892;47.794;19.126;2022-11-20T14:32:16;14.00;36.50
7700;DHT22;3892;47.794;19.126;2022-11-20T14:34:47;14.00;36.60
7700;DHT22;3892;47.794;19.126;2022-11-20T14:37:19;14.00;36.50
7700;DHT22;3892;47.794;19.126;2022-11-20T14:39:50;13.90;36.50
7700;DHT22;3892;47.794;19.126;2022-11-20T14:42:20;13.90;36.40
7700;DHT22;3892;47.794;19.126;2022-11-20T14:44:48;13.80;36.50
7700;DHT22;3892;47.794;19.126;2022-11-20T14:47:19;13.70;36.60
7700;DHT22;3892;47.794;19.126;2022-11-20T14:49:50;13.60;36.70
7700;DHT22;3892;47.794;19.126;2022-11-20T14:52:19;13.60;36.90
7700;DHT22;3892;47.794;19.126;2022-11-20T14:54:48;13.50;36.90
7700;DHT22;3892;47.794;19.126;2022-11-20T14:57:24;13.40;37.00
7700;DHT22;3892;47.794;19.126;2022-11-20T15:00:05;13.30;37.00
7700;DHT22;3892;47.794;19.126;2022-11-20T15:02:32;13.20;37.10
7700;DHT22;3892;47.794;19.126;2022-11-20T15:05:01;13.20;37.20
7700;DHT22;3892;47.794;19.126;2022-11-20T15:07:31;13.10;37.20
7700;DHT22;3892;47.794;19.126;2022-11-20T15:10:01;13.10;37.40
7700;DHT22;3892;47.794;19.126;2022-11-20T15:12:28;13.00;37.50
7700;DHT22;3892;47.794;19.126;2022-11-20T15:14:56;13.00;37.80
7700;DHT22;3892;47.794;19.126;2022-11-20T15:17:23;12.90;37.70
7700;DHT22;3892;47.794;19.126;2022-11-20T15:19:50;12.90;37.70
7700;DHT22;3892;47.794;19.126;2022-11-20T15:22:19;12.80;37.70
7700;DHT22;3892;47.794;19.126;2022-11-20T15:24:46;12.80;37.90
7700;DHT22;3892;47.794;19.126;2022-11-20T15:27:13;12.80;37.90
7700;DHT22;3892;47.794;19.126;2022-11-20T15:29:41;12.80;37.90
7700;DHT22;3892;47.794;19.126;2022-11-20T15:32:08;12.70;37.90
7700;DHT22;3892;47.794;19.126;2022-11-20T15:34:35;12.70;37.90
7700;DHT22;3892;47.794;19.126;2022-11-20T15:37:02;12.70;37.90
7700;DHT22;3892;47.794;19.126;2022-11-20T15:39:31;12.70;38.10
7700;DHT22;3892;47.794;19.126;2022-11-20T15:41:58;12.60;38.00
7700;DHT22;3892;47.794;19.126;2022-11-20T15:44:25;12.60;38.10
7700;DHT22;3892;47.794;19.126;2022-11-20T15:46:52;12.60;38.00
7700;DHT22;3892;47.794;19.126;2022-11-20T15:49:19;12.60;38.00
7700;DHT22;3892;47.794;19.126;2022-11-20T15:51:49;12.50;38.00
7700;DHT22;3892;47.794;19.126;2022-11-20T15:54:19;12.50;38.10
7700;DHT22;3892;47.794;19.126;2022-11-20T15:56:49;12.50;38.30
7700;DHT22;3892;47.794;19.126;2022-11-20T15:59:17;12.40;38.20
7700;DHT22;3892;47.794;19.126;2022-11-20T16:01:44;12.50;38.30
7700;DHT22;3892;47.794;19.126;2022-11-20T16:04:13;12.30;38.20
7700;DHT22;3892;47.794;19.126;2022-11-20T16:06:41;12.30;38.30
7700;DHT22;3892;47.794;19.126;2022-11-20T16:09:08;12.30;38.50
7700;DHT22;3892;47.794;19.126;2022-11-20T16:11:35;12.30;38.60
7700;DHT22;3892;47.794;19.126;2022-11-20T16:14:04;12.30;38.60